Un Akdeniz — TCTD2 — position and weather

sailwx.info

Track history (hours):
 
Tides and Currents Weather Stations Pressure Air Temp Water Temp Dewpoint Dewpoint Depression Visibility Wind Speed Wind Dir Waves Ship Positions

Un Akdeniz

Last reported at 2014-Nov-27 23:33 UTC. Time now 2014-Nov-28 00:20 UTC.
Position N 37°49' E 024°24'.

Length 192 m; draft 6.3 m.

Type: Ship (hazmat cat A). MMSI: 271002572.

Date/timePositionNaut miles runAvg speedWind from/ knotsBaromVisibWave heightAir tempDewpointWater temp
2014-Nov-27 23:33N 37°49' E 024°24'2619.1
2014-Nov-27 22:12N 38°09' E 024°43'24117.3
2014-Nov-27 08:17N 40°49' E 028°36'1419.3
2014-Nov-27 07:33N 40°48' E 028°55'1615.3
2014-Nov-27 06:29N 40°51' E 029°16'0 0.0
2014-Nov-27 05:25N 40°51' E 029°16'0 0.0
2014-Nov-27 04:10N 40°51' E 029°16'0 0.0
2014-Nov-27 03:33N 40°51' E 029°16'0 0.0
2014-Nov-27 02:33N 40°51' E 029°16'0 0.0
2014-Nov-27 01:33N 40°51' E 029°16'0 0.0
2014-Nov-27 00:32N 40°51' E 029°16'0 0.0
2014-Nov-26 23:32N 40°51' E 029°16'0 0.0
2014-Nov-26 22:33N 40°51' E 029°16'5 4.6
2014-Nov-26 21:33N 40°50' E 029°10'1817.7
2014-Nov-26 20:32N 40°48' E 028°47'27316.1
2014-Nov-26 03:33N 37°42' E 024°30'1818.2
2014-Nov-26 02:33N 37°26' E 024°18'1818.4
2014-Nov-26 01:33N 37°11' E 024°05'2518.0
2014-Nov-26 00:11N 36°51' E 023°47'1617.9
2014-Nov-25 23:17N 36°39' E 023°33'49617.0
2014-Nov-24 18:08N 39°24' E 013°39'19918.7
2014-Nov-24 07:28N 41°07' E 009°56'1918.6
2014-Nov-24 06:28N 41°17' E 009°34'9117.1
2014-Nov-24 01:08N 41°58' E 007°46'3118.5
2014-Nov-23 23:29N 42°16' E 007°12'1718.0
2014-Nov-23 22:33N 42°26' E 006°54'2017.9
2014-Nov-23 21:26N 42°37' E 006°32'1517.5
2014-Nov-23 20:34N 42°45' E 006°14'1616.5
2014-Nov-23 19:34N 42°58' E 005°59'10 9.2
2014-Nov-23 18:31N 43°06' E 005°54'0 0.0
2014-Nov-23 17:31N 43°06' E 005°54'0 0.0
2014-Nov-23 16:34N 43°06' E 005°54'0 0.0
2014-Nov-23 15:33N 43°06' E 005°54'0 0.0
2014-Nov-23 14:33N 43°06' E 005°54'0 0.0
2014-Nov-23 13:32N 43°06' E 005°54'0 0.0
2014-Nov-23 12:32N 43°06' E 005°54'0 0.0
2014-Nov-23 11:31N 43°06' E 005°54'0 0.0
2014-Nov-23 10:31N 43°06' E 005°54'0 0.0
2014-Nov-23 09:33N 43°06' E 005°54'0 0.0
2014-Nov-23 08:34N 43°06' E 005°54'2 1.8
2014-Nov-23 07:33N 43°05' E 005°55'7 7.0
2014-Nov-23 06:33N 42°59' E 006°01'1312.7
2014-Nov-23 05:33N 42°51' E 006°14'2019.6
2014-Nov-23 04:33N 42°40' E 006°36'4219.3
2014-Nov-23 02:24N 42°14' E 007°20'32616.4
2014-Nov-22 06:31N 39°29' E 013°31'49917.1
2014-Nov-21 01:19N 36°50' E 023°32'3919.4
2014-Nov-20 23:19N 37°23' E 023°58'1519.7
2014-Nov-20 22:33N 37°35' E 024°09'2219.6
2014-Nov-20 21:26N 37°51' E 024°28'114 2.8
2014-Nov-19 04:31N 39°31' E 025°39'11619.2
2014-Nov-18 22:29N 37°46' E 024°33'1719.0
2014-Nov-18 21:33N 37°31' E 024°23'2019.4
2014-Nov-18 20:32N 37°15' E 024°07'1818.6
2014-Nov-18 19:33N 37°01' E 023°54'1918.8
2014-Nov-18 18:33N 36°46' E 023°39'1918.9
2014-Nov-18 17:33N 36°32' E 023°23'1817.8
2014-Nov-18 16:33N 36°24' E 023°03'1918.9
2014-Nov-18 15:33N 36°23' E 022°40'  
Track history (hours):
 
Tides and Currents Weather Stations Pressure Air Temp Water Temp Dewpoint Dewpoint Depression Visibility Wind Speed Wind Dir Waves Ship Positions

Un Akdeniz

Last reported at 2014-Nov-27 23:33 UTC. Time now 2014-Nov-28 00:20 UTC.
Position N 37°49' E 024°24'.

Length 192 m; draft 6.3 m.

Type: Ship (hazmat cat A). MMSI: 271002572.

Date/timePositionNaut miles runAvg speedWind from/ knotsBaromVisibWave heightAir tempDewpointWater temp
2014-Nov-27 23:33N 37°49' E 024°24'2619.1
2014-Nov-27 22:12N 38°09' E 024°43'24117.3
2014-Nov-27 08:17N 40°49' E 028°36'1419.3
2014-Nov-27 07:33N 40°48' E 028°55'1615.3
2014-Nov-27 06:29N 40°51' E 029°16'0 0.0
2014-Nov-27 05:25N 40°51' E 029°16'0 0.0
2014-Nov-27 04:10N 40°51' E 029°16'0 0.0
2014-Nov-27 03:33N 40°51' E 029°16'0 0.0
2014-Nov-27 02:33N 40°51' E 029°16'0 0.0
2014-Nov-27 01:33N 40°51' E 029°16'0 0.0
2014-Nov-27 00:32N 40°51' E 029°16'0 0.0
2014-Nov-26 23:32N 40°51' E 029°16'0 0.0
2014-Nov-26 22:33N 40°51' E 029°16'5 4.6
2014-Nov-26 21:33N 40°50' E 029°10'1817.7
2014-Nov-26 20:32N 40°48' E 028°47'27316.1
2014-Nov-26 03:33N 37°42' E 024°30'1818.2
2014-Nov-26 02:33N 37°26' E 024°18'1818.4
2014-Nov-26 01:33N 37°11' E 024°05'2518.0
2014-Nov-26 00:11N 36°51' E 023°47'1617.9
2014-Nov-25 23:17N 36°39' E 023°33'49617.0
2014-Nov-24 18:08N 39°24' E 013°39'19918.7
2014-Nov-24 07:28N 41°07' E 009°56'1918.6
2014-Nov-24 06:28N 41°17' E 009°34'9117.1
2014-Nov-24 01:08N 41°58' E 007°46'3118.5
2014-Nov-23 23:29N 42°16' E 007°12'1718.0
2014-Nov-23 22:33N 42°26' E 006°54'2017.9
2014-Nov-23 21:26N 42°37' E 006°32'1517.5
2014-Nov-23 20:34N 42°45' E 006°14'1616.5
2014-Nov-23 19:34N 42°58' E 005°59'10 9.2
2014-Nov-23 18:31N 43°06' E 005°54'0 0.0
2014-Nov-23 17:31N 43°06' E 005°54'0 0.0
2014-Nov-23 16:34N 43°06' E 005°54'0 0.0
2014-Nov-23 15:33N 43°06' E 005°54'0 0.0
2014-Nov-23 14:33N 43°06' E 005°54'0 0.0
2014-Nov-23 13:32N 43°06' E 005°54'0 0.0
2014-Nov-23 12:32N 43°06' E 005°54'0 0.0
2014-Nov-23 11:31N 43°06' E 005°54'0 0.0
2014-Nov-23 10:31N 43°06' E 005°54'0 0.0
2014-Nov-23 09:33N 43°06' E 005°54'0 0.0
2014-Nov-23 08:34N 43°06' E 005°54'2 1.8
2014-Nov-23 07:33N 43°05' E 005°55'7 7.0
2014-Nov-23 06:33N 42°59' E 006°01'1312.7
2014-Nov-23 05:33N 42°51' E 006°14'2019.6
2014-Nov-23 04:33N 42°40' E 006°36'4219.3
2014-Nov-23 02:24N 42°14' E 007°20'32616.4
2014-Nov-22 06:31N 39°29' E 013°31'49917.1
2014-Nov-21 01:19N 36°50' E 023°32'3919.4
2014-Nov-20 23:19N 37°23' E 023°58'1519.7
2014-Nov-20 22:33N 37°35' E 024°09'2219.6
2014-Nov-20 21:26N 37°51' E 024°28'114 2.8
2014-Nov-19 04:31N 39°31' E 025°39'11619.2
2014-Nov-18 22:29N 37°46' E 024°33'1719.0
2014-Nov-18 21:33N 37°31' E 024°23'2019.4
2014-Nov-18 20:32N 37°15' E 024°07'1818.6
2014-Nov-18 19:33N 37°01' E 023°54'1918.8
2014-Nov-18 18:33N 36°46' E 023°39'1918.9
2014-Nov-18 17:33N 36°32' E 023°23'1817.8
2014-Nov-18 16:33N 36°24' E 023°03'1918.9
2014-Nov-18 15:33N 36°23' E 022°40'  

Dump ship's entire track history